首页
METAR-TAF:

METAR-TAF

机场 :

基加利国际机场

吉佳利, 卢旺达

纬度: 01-58S, 经度: 030-07E, 海拔: 1491米

当前天气观测

该预报发布于4小时和39分钟前的15:00 UTC
风速6节,风向东北
温度 21°C
湿度 78%
气压 1016 hPa
能见度10公里或以上
少量云层高于2300英尺, 积雨云.
雷暴, 雨

METAR: HRYR 171500Z 05006KT 9999 TSRA FEW023CB BKN 21/17 Q1016 NOSIG

时间: 21:39 (19:39 UTC)

预报

该预报发布于2小时和39分钟前的17:00 UTC
预报有效从17日的 18点(UTC)到 18日的 24点(UTC)
风速6节,风向西转西南
能见度10公里或以上
散云层高于2600英尺
多云层高于10000英尺
从 点(UTC)
风速4节,风向西转西北
多云层高于2600英尺
散云层高于10000英尺
成为
从 18日的 02点(UTC)到 18日的 05点(UTC)
风速节,风向
能見度: 0500
散云层高于800英尺
多云层高于2600英尺
从 点(UTC)
风速6节,风向
能见度10公里或以上
多云层高于2500英尺
短暂存在
从 18日的 10点(UTC)到 18日的 14点(UTC)
风速10节,风向,有时为20节阵风
少量云层高于2300英尺, 积雨云.
多云层高于2500英尺
雷暴, 雨
从 点(UTC)
风速4节,风向南转西南
散云层高于2600英尺
散云层高于10000英尺

TAF: HRYR 171700Z 1718/1824 24006KT 9999 SCT026 BKN100 FM 172100 30004KT BKN026 SCT100 BECMG 1802/1805 00000KT 0500 FG SCT008 BKN026 FM 180800 09006KT 9999 BKN025 TEMPO 1810/1814 17010G20KT TSRA FEW023CB BKN025 FM 182100 21004KT SCT026 SCT100

超过4000个机场的气象观测和天气预报(METAR&TAF报告)。

可查询的气象台以黄色和红色小点在地图上表示。

将鼠标移到小点上方,可查看气象台名称。

然后点击查看天气观测和预报。

如需切换地图:点击带黑十字的绿色按钮放大地图;点击带横线的绿色按钮缩小地图;或者点击绿色箭头查看邻近地区的地图。


METAR-TAF: